Time;durP1;ratioP1;P1;durP2;ratioP2;P2;SDS_P1;SDS_P2;PMS_P1;PMS_P2;Temp;Humidity;BMP_temperature;BMP_pressure;BME280_temperature;BME280_humidity;BME280_pressure;Samples;Min_cycle;Max_cycle;Signal;HPM_P1;HPM_P2
2023/05/20 00:02:02;;;;;;;7.30;2.58;;;;;;;14.43;53.66;102121.00;3612886;39;20055;-67
2023/05/20 00:04:27;;;;;;;10.43;3.60;;;;;;;14.42;54.51;102125.56;3613389;39;20058;-67
2023/05/20 00:06:53;;;;;;;6.70;2.97;;;;;;;14.38;54.27;102121.28;3613375;39;20043;-67
2023/05/20 00:09:19;;;;;;;7.03;3.40;;;;;;;14.31;54.03;102109.06;3615997;39;20378;-67
2023/05/20 00:11:45;;;;;;;5.70;3.42;;;;;;;14.01;54.50;102061.16;3617318;39;20324;-68
2023/05/20 00:14:11;;;;;;;7.03;3.50;;;;;;;14.26;55.39;102120.13;3607049;39;20063;-67
2023/05/20 00:16:37;;;;;;;7.07;3.10;;;;;;;14.16;55.29;102100.84;3615173;39;20128;-67
2023/05/20 00:19:02;;;;;;;9.20;3.05;;;;;;;14.21;55.87;102118.66;3614566;39;20259;-68
2023/05/20 00:21:28;;;;;;;8.65;3.65;;;;;;;14.16;56.04;102127.91;3613273;39;20436;-67
2023/05/20 00:23:55;;;;;;;5.88;3.30;;;;;;;14.10;56.07;102119.25;3613455;39;20081;-67
2023/05/20 00:26:21;;;;;;;6.75;3.70;;;;;;;14.03;55.97;102113.31;3614860;39;20076;-67
2023/05/20 00:28:47;;;;;;;6.80;3.20;;;;;;;14.05;56.30;102124.94;3616357;39;20086;-66
2023/05/20 00:31:12;;;;;;;8.10;3.10;;;;;;;14.03;56.95;102121.44;3616224;39;20139;-67
2023/05/20 00:33:38;;;;;;;4.40;3.00;;;;;;;13.98;57.02;102117.25;3614704;39;20066;-66
2023/05/20 00:36:04;;;;;;;7.75;3.10;;;;;;;13.94;57.04;102120.09;3613745;39;20057;-67
2023/05/20 00:38:30;;;;;;;7.45;3.00;;;;;;;13.88;57.44;102116.88;3616461;39;20242;-67
2023/05/20 00:40:56;;;;;;;9.25;3.53;;;;;;;13.85;57.47;102115.22;3614975;39;20046;-66
2023/05/20 00:43:24;;;;;;;5.65;3.25;;;;;;;13.85;57.69;102114.34;3613662;39;20058;-67
2023/05/20 00:45:51;;;;;;;9.10;3.50;;;;;;;13.69;58.35;102106.19;3616476;39;20050;-67
2023/05/20 00:48:17;;;;;;;6.88;3.13;;;;;;;13.74;58.71;102109.53;3613252;39;20051;-67
2023/05/20 00:50:43;;;;;;;6.00;3.25;;;;;;;13.74;58.60;102116.78;3614895;39;20349;-67
2023/05/20 00:53:09;;;;;;;7.55;3.38;;;;;;;13.72;59.24;102113.28;3612924;39;20054;-67
2023/05/20 00:55:35;;;;;;;9.50;3.42;;;;;;;13.67;59.40;102119.81;3613836;39;20099;-67
2023/05/20 00:58:01;;;;;;;7.75;3.22;;;;;;;13.66;59.13;102112.63;3613075;39;20059;-67
2023/05/20 01:00:27;;;;;;;6.25;3.60;;;;;;;13.61;59.70;102119.28;3615488;39;20386;-67
2023/05/20 01:02:55;;;;;;;7.55;3.03;;;;;;;13.58;59.64;102104.09;3616286;39;20049;-67
2023/05/20 01:05:21;;;;;;;8.95;3.53;;;;;;;13.58;59.99;102109.50;3615479;39;20215;-67
2023/05/20 01:07:47;;;;;;;8.75;3.80;;;;;;;13.27;59.81;102058.94;3617057;39;20053;-67
2023/05/20 01:10:12;;;;;;;7.10;3.40;;;;;;;13.52;59.78;102109.81;3614590;39;20093;-67
2023/05/20 01:12:45;;;;;;;9.25;3.60;;;;;;;13.40;59.92;102094.28;3615024;39;20318;-66
2023/05/20 01:15:14;;;;;;;8.77;3.22;;;;;;;13.36;60.08;102090.00;3614272;39;20165;-67
2023/05/20 01:17:47;;;;;;;7.82;3.40;;;;;;;13.42;60.20;102113.97;3614836;39;20104;-67
2023/05/20 01:20:14;;;;;;;7.65;3.58;;;;;;;13.38;60.97;102101.56;3604990;39;20504;-68
2023/05/20 01:22:55;;;;;;;7.32;3.80;;;;;;;13.32;61.18;102105.50;3605596;39;20100;-68
2023/05/20 01:25:21;;;;;;;7.22;3.90;;;;;;;13.24;61.24;102084.28;3613680;39;20054;-67
2023/05/20 01:27:49;;;;;;;7.93;3.90;;;;;;;13.24;60.78;102097.78;3616162;39;20043;-67
2023/05/20 01:30:16;;;;;;;6.07;3.50;;;;;;;13.27;60.74;102099.44;3614362;39;20324;-67
2023/05/20 01:32:58;;;;;;;6.70;3.60;;;;;;;13.24;60.92;102100.47;3614420;39;20316;-67
2023/05/20 01:35:25;;;;;;;8.80;4.25;;;;;;;13.18;61.12;102098.06;3615594;39;20053;-67
2023/05/20 01:37:54;;;;;;;6.93;4.05;;;;;;;13.18;61.92;102100.75;3617476;39;20386;-67
2023/05/20 01:40:22;;;;;;;7.07;3.65;;;;;;;13.13;61.96;102086.66;3615308;39;20112;-68
2023/05/20 01:42:51;;;;;;;6.88;3.85;;;;;;;13.15;61.57;102092.81;3616631;39;20042;-68
2023/05/20 01:45:18;;;;;;;9.80;4.20;;;;;;;13.13;61.72;102085.75;3614481;39;20043;-68
2023/05/20 01:47:47;;;;;;;8.77;3.92;;;;;;;13.09;61.63;102086.88;3615265;39;20389;-68
2023/05/20 01:50:12;;;;;;;8.10;3.95;;;;;;;13.08;62.21;102086.00;3615821;39;20059;-68
2023/05/20 01:52:38;;;;;;;7.75;4.15;;;;;;;13.06;62.42;102095.13;3614358;39;20199;-68
2023/05/20 01:55:04;;;;;;;6.88;4.03;;;;;;;13.02;62.17;102089.88;3613999;39;20054;-68
2023/05/20 01:57:29;;;;;;;14.68;8.00;;;;;;;12.97;62.65;102082.97;3615717;39;20149;-69
2023/05/20 01:59:55;;;;;;;8.35;4.65;;;;;;;12.99;63.03;102083.78;3614316;39;20381;-68
2023/05/20 02:02:21;;;;;;;6.57;4.15;;;;;;;12.97;62.82;102082.97;3616847;39;20051;-68
2023/05/20 02:04:50;;;;;;;7.90;4.20;;;;;;;12.87;62.85;102073.63;3618144;39;20058;-67
2023/05/20 02:07:20;;;;;;;8.07;4.15;;;;;;;12.91;63.08;102081.50;3615081;39;20278;-68
2023/05/20 02:09:46;;;;;;;7.07;4.10;;;;;;;12.90;63.45;102090.53;3614470;39;20109;-67
2023/05/20 02:12:15;;;;;;;10.82;4.10;;;;;;;12.87;63.48;102084.41;3614108;39;20110;-68
2023/05/20 02:14:46;;;;;;;5.53;3.80;;;;;;;12.80;63.28;102066.78;3617119;39;20352;-68
2023/05/20 02:17:15;;;;;;;8.23;4.40;;;;;;;12.82;63.36;102075.69;3614172;39;20067;-68
2023/05/20 02:19:43;;;;;;;9.57;4.47;;;;;;;12.80;63.92;102082.97;3614638;39;20292;-68
2023/05/20 02:22:08;;;;;;;10.27;4.10;;;;;;;12.77;64.06;102084.00;3615311;39;20068;-67
2023/05/20 02:24:34;;;;;;;8.65;4.25;;;;;;;12.69;64.19;102070.06;3615413;39;20319;-68
2023/05/20 02:27:01;;;;;;;9.20;4.13;;;;;;;12.73;63.94;102079.72;3607405;39;20054;-68
2023/05/20 02:29:27;;;;;;;6.63;3.88;;;;;;;12.71;64.48;102077.09;3604344;39;20094;-68
2023/05/20 02:31:53;;;;;;;8.45;3.88;;;;;;;12.68;64.36;102063.75;3614145;39;20051;-68
2023/05/20 02:34:20;;;;;;;7.85;4.50;;;;;;;12.68;64.16;102074.56;3615305;39;20051;-68
2023/05/20 02:36:46;;;;;;;7.40;4.45;;;;;;;12.38;64.19;102017.66;3616151;39;20159;-68
2023/05/20 02:39:12;;;;;;;7.25;4.43;;;;;;;12.53;64.63;102056.47;3615047;39;20050;-68
2023/05/20 02:41:38;;;;;;;6.05;3.97;;;;;;;12.63;65.02;102075.75;3614235;39;20443;-68
2023/05/20 02:44:03;;;;;;;6.65;4.13;;;;;;;12.64;64.33;102075.66;3616157;39;20047;-68
2023/05/20 02:46:30;;;;;;;8.30;4.65;;;;;;;12.36;64.60;102038.41;3614771;39;20051;-68
2023/05/20 02:48:56;;;;;;;12.23;4.57;;;;;;;12.51;65.11;102055.66;3618301;39;20046;-68
2023/05/20 02:51:23;;;;;;;9.07;4.53;;;;;;;12.52;64.87;102070.88;3614144;39;20383;-67
2023/05/20 02:53:48;;;;;;;9.20;4.10;;;;;;;12.53;64.98;102064.56;3614714;39;20057;-67
2023/05/20 02:56:15;;;;;;;9.07;4.32;;;;;;;12.54;65.43;102071.69;3614297;39;20342;-67
2023/05/20 02:58:41;;;;;;;9.98;5.22;;;;;;;12.52;65.63;102074.44;3616536;39;20047;-68
2023/05/20 03:01:06;;;;;;;6.10;4.57;;;;;;;12.50;65.26;102060.19;3614102;39;20066;-67
2023/05/20 03:03:32;;;;;;;9.70;5.30;;;;;;;12.49;66.25;102071.03;3616261;39;20058;-67
2023/05/20 03:05:58;;;;;;;8.52;4.47;;;;;;;12.47;65.46;102068.44;3615606;39;20402;-67
2023/05/20 03:08:24;;;;;;;13.43;4.82;;;;;;;12.46;66.36;102074.78;3614654;39;20051;-68
2023/05/20 03:10:50;;;;;;;11.30;4.78;;;;;;;12.46;65.66;102063.09;3613714;39;20055;-67
2023/05/20 03:13:16;;;;;;;10.25;4.47;;;;;;;12.38;66.54;102059.94;3615324;39;20062;-68
2023/05/20 03:15:46;;;;;;;9.35;4.82;;;;;;;12.38;66.18;102065.31;3616284;39;20131;-68
2023/05/20 03:18:12;;;;;;;11.02;4.90;;;;;;;12.36;66.48;102064.50;3613956;39;20055;-68
2023/05/20 03:20:38;;;;;;;7.05;4.80;;;;;;;12.32;66.40;102069.19;3614273;39;20043;-69
2023/05/20 03:23:06;;;;;;;7.82;4.60;;;;;;;12.30;66.93;102068.38;3614816;39;20120;-68
2023/05/20 03:25:31;;;;;;;7.72;5.00;;;;;;;12.28;67.32;102063.06;3613757;39;20043;-68
2023/05/20 03:27:58;;;;;;;9.25;4.80;;;;;;;12.24;67.12;102058.78;3614833;39;20054;-67
2023/05/20 03:30:24;;;;;;;9.75;4.72;;;;;;;12.17;67.04;102054.63;3616777;39;20361;-67
2023/05/20 03:32:50;;;;;;;8.18;4.72;;;;;;;12.14;67.27;102057.47;3615944;39;20377;-67
2023/05/20 03:35:16;;;;;;;7.68;4.93;;;;;;;12.14;67.53;102062.84;3616886;39;20066;-67
2023/05/20 03:37:42;;;;;;;10.10;5.18;;;;;;;12.12;68.06;102059.38;3615454;39;20062;-67
2023/05/20 03:40:09;;;;;;;8.32;4.70;;;;;;;12.11;68.43;102068.41;3615191;39;20062;-68
2023/05/20 03:42:36;;;;;;;9.57;4.82;;;;;;;12.09;68.33;102062.22;3616586;39;20551;-67
2023/05/20 03:45:02;;;;;;;9.07;4.95;;;;;;;12.05;68.15;102055.22;3614057;39;20038;-66
2023/05/20 03:47:28;;;;;;;9.60;4.82;;;;;;;12.05;68.36;102068.69;3614280;39;20068;-67
2023/05/20 03:49:54;;;;;;;7.97;4.75;;;;;;;12.04;68.35;102057.03;3615365;39;20381;-66
2023/05/20 03:52:20;;;;;;;8.43;5.10;;;;;;;11.79;68.31;102008.81;3613938;39;20066;-67
2023/05/20 03:54:45;;;;;;;9.38;5.00;;;;;;;11.97;68.31;102043.94;3615183;39;20061;-65
2023/05/20 03:57:11;;;;;;;11.70;5.10;;;;;;;12.03;68.95;102059.81;3617159;39;20065;-65
2023/05/20 03:59:37;;;;;;;9.45;4.88;;;;;;;12.05;68.89;102057.91;3614668;39;20051;-67
2023/05/20 04:02:04;;;;;;;6.63;4.57;;;;;;;12.07;68.48;102050.63;3613474;39;20431;-67
2023/05/20 04:04:29;;;;;;;7.40;4.80;;;;;;;12.04;69.26;102045.41;3614633;39;20050;-65
2023/05/20 04:06:55;;;;;;;8.10;5.03;;;;;;;11.84;68.88;102012.19;3613372;39;20146;-65
2023/05/20 04:09:21;;;;;;;11.45;4.93;;;;;;;12.03;68.98;102052.63;3613232;39;20447;-66
2023/05/20 04:11:47;;;;;;;8.55;4.75;;;;;;;12.05;69.62;102068.69;3614440;39;20067;-65
2023/05/20 04:14:14;;;;;;;10.93;5.30;;;;;;;12.05;69.46;102057.91;3613643;39;20124;-66
2023/05/20 04:16:40;;;;;;;12.75;5.28;;;;;;;12.03;69.38;102057.13;3614759;39;20045;-67
2023/05/20 04:19:06;;;;;;;8.63;4.90;;;;;;;12.03;69.22;102062.53;3613026;39;20466;-66
2023/05/20 04:21:32;;;;;;;8.77;4.53;;;;;;;12.03;69.47;102063.38;3614706;39;20055;-66
2023/05/20 04:23:57;;;;;;;7.53;5.50;;;;;;;11.97;69.94;102049.34;3614508;39;20094;-66
2023/05/20 04:26:23;;;;;;;10.20;4.90;;;;;;;12.02;70.26;102064.34;3613179;39;20054;-67
2023/05/20 04:28:49;;;;;;;11.07;5.65;;;;;;;11.92;69.53;102044.16;3612730;39;20059;-67
2023/05/20 04:31:15;;;;;;;8.27;4.80;;;;;;;12.07;69.63;102070.38;3613780;39;20050;-65
2023/05/20 04:33:42;;;;;;;8.95;5.03;;;;;;;11.88;69.52;102018.31;3613021;39;20054;-66
2023/05/20 04:36:14;;;;;;;7.95;4.82;;;;;;;12.13;69.35;102055.72;3613353;39;20122;-66
2023/05/20 04:38:41;;;;;;;9.90;5.15;;;;;;;12.20;70.04;102061.69;3614445;39;20270;-66
2023/05/20 04:41:08;;;;;;;8.95;4.95;;;;;;;12.20;70.06;102057.16;3613400;39;20054;-66
2023/05/20 04:43:34;;;;;;;8.82;5.35;;;;;;;12.24;69.42;102056.09;3615044;39;20039;-66
2023/05/20 04:46:00;;;;;;;10.57;5.22;;;;;;;12.26;69.20;102062.25;3614084;39;20054;-66
2023/05/20 04:48:26;;;;;;;8.63;4.85;;;;;;;12.30;70.09;102061.19;3613297;39;20124;-66
2023/05/20 04:50:53;;;;;;;9.13;5.32;;;;;;;12.09;69.66;102027.19;3613046;39;20406;-66
2023/05/20 04:53:20;;;;;;;10.73;5.20;;;;;;;12.37;69.20;102068.94;3613491;39;20127;-66
2023/05/20 04:55:47;;;;;;;9.52;5.25;;;;;;;12.37;70.00;102066.25;3614025;39;20047;-66
2023/05/20 04:58:16;;;;;;;7.80;4.90;;;;;;;12.42;69.37;102066.91;3613662;39;20389;-66
2023/05/20 05:00:44;;;;;;;8.48;4.60;;;;;;;12.46;69.19;102063.09;3615321;39;20058;-66
2023/05/20 05:03:11;;;;;;;8.52;5.10;;;;;;;12.49;69.61;102065.63;3612987;39;20058;-66
2023/05/20 05:05:38;;;;;;;8.98;5.22;;;;;;;12.56;69.27;102059.00;3613140;39;20099;-66
2023/05/20 05:08:05;;;;;;;8.35;5.38;;;;;;;12.58;69.02;102056.22;3612727;39;20078;-65
2023/05/20 05:10:32;;;;;;;9.63;4.97;;;;;;;12.61;69.34;102056.94;3613084;39;20055;-66
2023/05/20 05:12:57;;;;;;;6.70;4.78;;;;;;;12.60;68.96;102039.00;3615082;39;20055;-65
2023/05/20 05:15:24;;;;;;;8.85;5.05;;;;;;;12.69;69.00;102048.47;3613902;39;20102;-66
2023/05/20 05:17:50;;;;;;;9.40;5.50;;;;;;;12.69;68.98;102046.63;3612970;39;20281;-66
2023/05/20 05:20:16;;;;;;;11.57;5.53;;;;;;;12.82;68.67;102049.59;3616016;39;20097;-66
2023/05/20 05:22:43;;;;;;;6.85;4.88;;;;;;;12.56;68.84;101996.97;3612810;39;20061;-66
2023/05/20 05:25:10;;;;;;;10.00;4.88;;;;;;;12.93;69.02;102051.72;3612819;39;20641;-65
2023/05/20 05:27:36;;;;;;;8.80;4.63;;;;;;;12.73;68.21;102013.16;3613773;39;20108;-66
2023/05/20 05:30:05;;;;;;;9.60;4.90;;;;;;;12.86;68.34;102018.78;3613954;39;20055;-66
2023/05/20 05:32:31;;;;;;;8.48;4.93;;;;;;;13.11;68.31;102053.44;3613291;39;20274;-65
2023/05/20 05:34:57;;;;;;;10.00;5.20;;;;;;;13.14;67.88;102053.28;3612434;39;20055;-65
2023/05/20 05:37:22;;;;;;;8.90;5.18;;;;;;;13.15;67.94;102046.91;3616059;39;20053;-65
2023/05/20 05:39:48;;;;;;;7.57;4.75;;;;;;;13.22;67.68;102047.47;3606890;39;20377;-65
2023/05/20 05:42:14;;;;;;;9.25;5.05;;;;;;;13.30;67.41;102047.09;3615296;39;20055;-65
2023/05/20 05:44:40;;;;;;;9.27;4.93;;;;;;;13.37;67.21;102045.81;3615668;39;20063;-66
2023/05/20 05:47:05;;;;;;;8.15;4.95;;;;;;;13.43;66.38;102037.38;3615420;39;20066;-66
2023/05/20 05:49:32;;;;;;;8.05;5.10;;;;;;;13.22;66.73;101993.47;3616534;39;20046;-66
2023/05/20 05:51:58;;;;;;;7.88;4.90;;;;;;;13.56;66.82;102033.03;3614415;39;20082;-66
2023/05/20 05:54:23;;;;;;;8.75;5.10;;;;;;;13.62;66.28;102045.34;3614172;39;20067;-65
2023/05/20 05:56:52;;;;;;;7.45;5.20;;;;;;;13.73;65.70;102050.16;3620924;39;20384;-64
2023/05/20 05:59:18;;;;;;;7.28;4.38;;;;;;;13.79;65.91;102044.41;3614758;39;20038;-66
2023/05/20 06:01:45;;;;;;;8.38;4.65;;;;;;;13.84;65.34;102045.91;3613752;39;20080;-66
2023/05/20 06:04:10;;;;;;;11.07;4.70;;;;;;;13.89;65.36;102038.41;3617297;39;20317;-66
2023/05/20 06:06:36;;;;;;;6.03;4.40;;;;;;;14.03;65.00;102044.88;3614095;39;20118;-65
2023/05/20 06:09:02;;;;;;;8.10;4.68;;;;;;;14.17;65.22;102044.94;3619282;39;20046;-66
2023/05/20 06:11:28;;;;;;;10.98;4.97;;;;;;;14.27;64.58;102054.28;3618378;39;20050;-66
2023/05/20 06:13:54;;;;;;;7.68;4.60;;;;;;;14.45;64.13;102046.03;3622712;39;20054;-66
2023/05/20 06:16:19;;;;;;;8.80;4.82;;;;;;;14.46;63.06;102026.13;3619897;39;20077;-65
2023/05/20 06:18:45;;;;;;;6.63;4.32;;;;;;;14.63;62.98;102040.47;3619295;39;20309;-65
2023/05/20 06:21:11;;;;;;;6.68;4.63;;;;;;;14.73;62.29;102043.47;3616073;39;20043;-65
2023/05/20 06:23:37;;;;;;;8.18;4.63;;;;;;;14.88;62.46;102033.56;3616116;39;20306;-65
2023/05/20 06:26:02;;;;;;;7.47;5.25;;;;;;;14.98;61.04;102032.03;3616298;39;20061;-68
2023/05/20 06:28:29;;;;;;;14.30;6.38;;;;;;;15.20;62.23;102025.31;3617851;39;20057;-66
2023/05/20 06:30:56;;;;;;;6.07;4.22;;;;;;;15.23;60.09;101996.19;3614159;39;20047;-66
2023/05/20 06:33:27;;;;;;;7.90;4.32;;;;;;;15.59;59.91;102026.47;3613681;39;20050;-66
2023/05/20 06:35:56;;;;;;;6.88;4.28;;;;;;;15.77;59.38;102026.19;3614227;39;20054;-66
2023/05/20 06:38:22;;;;;;;8.50;4.45;;;;;;;15.94;58.75;102013.38;3613978;39;20081;-65
2023/05/20 06:40:48;;;;;;;8.57;4.43;;;;;;;16.12;58.50;102022.16;3613603;39;20047;-65
2023/05/20 06:43:15;;;;;;;7.30;4.30;;;;;;;16.31;58.54;102017.25;3614241;39;20059;-66
2023/05/20 06:45:42;;;;;;;6.72;4.18;;;;;;;16.48;57.35;102022.38;3614552;39;20094;-66
2023/05/20 06:48:08;;;;;;;5.28;4.30;;;;;;;16.66;56.41;102017.56;3615878;39;20047;-66
2023/05/20 06:50:33;;;;;;;7.85;3.67;;;;;;;16.80;55.64;102010.34;3617847;39;20561;-67
2023/05/20 06:53:00;;;;;;;5.70;4.10;;;;;;;16.93;55.01;102014.81;3613749;39;20055;-65
2023/05/20 06:55:26;;;;;;;8.70;4.07;;;;;;;17.16;55.33;102009.63;3613633;39;20385;-65
2023/05/20 06:57:52;;;;;;;8.23;4.50;;;;;;;17.21;54.64;102007.44;3617496;39;20055;-65
2023/05/20 07:00:18;;;;;;;5.75;3.80;;;;;;;17.29;54.27;102005.06;3613916;39;20146;-65
2023/05/20 07:02:44;;;;;;;6.35;4.10;;;;;;;17.38;53.80;102004.41;3614292;39;20099;-65
2023/05/20 07:05:10;;;;;;;7.75;3.85;;;;;;;17.54;52.92;101998.72;3613893;39;20054;-66
2023/05/20 07:07:36;;;;;;;7.32;4.13;;;;;;;17.73;54.01;101998.25;3614499;39;20409;-66
2023/05/20 07:10:04;;;;;;;4.85;3.58;;;;;;;17.86;50.24;102004.56;3614071;39;20134;-65
2023/05/20 07:12:31;;;;;;;6.45;3.63;;;;;;;17.85;51.44;101997.34;3613682;39;20054;-65
2023/05/20 07:14:56;;;;;;;6.03;3.38;;;;;;;17.95;50.33;102002.13;3613394;39;20047;-65
2023/05/20 07:17:23;;;;;;;8.57;3.45;;;;;;;18.13;50.24;102005.31;3613021;39;20061;-65
2023/05/20 07:19:49;;;;;;;4.28;3.35;;;;;;;18.20;49.96;102004.72;3616888;39;20057;-65
2023/05/20 07:22:15;;;;;;;7.40;3.83;;;;;;;18.25;49.13;102001.69;3616558;39;20086;-65
2023/05/20 07:24:41;;;;;;;5.57;3.63;;;;;;;18.50;50.27;101997.97;3615116;39;20061;-65
2023/05/20 07:27:07;;;;;;;5.22;3.42;;;;;;;18.54;49.02;101996.72;3618809;39;20057;-65
2023/05/20 07:29:34;;;;;;;6.57;3.83;;;;;;;18.74;48.46;101996.09;3615229;39;20066;-65
2023/05/20 07:32:01;;;;;;;7.57;3.30;;;;;;;18.83;46.87;101988.19;3613699;39;20050;-66
2023/05/20 07:34:26;;;;;;;4.35;3.33;;;;;;;18.92;47.24;101992.91;3612964;39;20069;-65
2023/05/20 07:36:52;;;;;;;4.60;3.63;;;;;;;19.05;47.91;101984.66;3613703;39;20062;-65
2023/05/20 07:39:18;;;;;;;6.97;3.72;;;;;;;19.14;46.79;101982.06;3614671;39;20053;-65
2023/05/20 07:41:44;;;;;;;4.35;3.10;;;;;;;19.17;46.39;101981.81;3614032;39;21787;-66
2023/05/20 07:44:11;;;;;;;6.28;3.40;;;;;;;19.31;46.04;101990.72;3617299;39;20058;-66
2023/05/20 07:46:37;;;;;;;4.68;3.40;;;;;;;19.37;46.13;101992.97;3616266;39;20602;-65
2023/05/20 07:49:03;;;;;;;6.70;3.67;;;;;;;19.42;44.39;101982.56;3614028;39;20059;-65
2023/05/20 07:51:30;;;;;;;8.85;3.90;;;;;;;19.50;45.59;101974.63;3613142;39;20053;-66
2023/05/20 07:53:56;;;;;;;5.80;2.80;;;;;;;19.52;44.15;101969.91;3613650;39;20059;-65
2023/05/20 07:56:21;;;;;;;4.60;3.40;;;;;;;19.70;45.14;101973.91;3616150;39;20408;-66
2023/05/20 07:58:57;;;;;;;4.40;3.05;;;;;;;19.72;45.22;101968.31;3617155;39;20062;-65
2023/05/20 08:01:23;;;;;;;7.32;3.25;;;;;;;19.89;45.83;101972.38;3615004;39;20057;-66
2023/05/20 08:03:49;;;;;;;5.72;3.00;;;;;;;20.01;43.99;101965.88;3615117;39;20086;-66
2023/05/20 08:06:15;;;;;;;4.70;2.90;;;;;;;20.26;43.96;101963.81;3612689;39;20408;-66
2023/05/20 08:08:41;;;;;;;4.85;3.13;;;;;;;20.32;43.68;101976.94;3614370;39;20083;-66
2023/05/20 08:11:08;;;;;;;6.38;3.45;;;;;;;20.36;43.93;101975.69;3615872;39;20050;-66
2023/05/20 08:13:34;;;;;;;5.47;3.45;;;;;;;20.50;42.69;101971.78;3613406;39;20077;-66
2023/05/20 08:16:02;;;;;;;5.97;3.45;;;;;;;20.52;42.46;101964.34;3613152;39;20051;-65
2023/05/20 08:18:28;;;;;;;5.22;3.25;;;;;;;20.29;42.31;101936.25;3614325;39;20066;-64
2023/05/20 08:20:54;;;;;;;5.28;3.00;;;;;;;20.57;41.81;101973.88;3617068;39;20117;-65
2023/05/20 08:23:20;;;;;;;4.80;2.60;;;;;;;20.63;42.38;101964.31;3615238;39;20054;-66
2023/05/20 08:25:47;;;;;;;7.15;3.53;;;;;;;20.78;42.60;101960.25;3618239;39;20381;-65
2023/05/20 08:28:13;;;;;;;4.15;3.05;;;;;;;21.00;43.04;101959.22;3615621;39;20043;-65
2023/05/20 08:30:38;;;;;;;3.42;2.47;;;;;;;21.23;41.48;101953.59;3606375;39;20062;-65
2023/05/20 08:33:04;;;;;;;5.82;3.35;;;;;;;21.21;40.63;101956.44;3613448;39;20118;-65
2023/05/20 08:35:30;;;;;;;4.47;3.50;;;;;;;21.35;41.10;101935.22;3614063;39;20398;-66
2023/05/20 08:37:56;;;;;;;4.50;2.97;;;;;;;21.29;40.92;101917.50;3615073;39;20062;-66
2023/05/20 08:40:22;;;;;;;8.27;3.15;;;;;;;21.46;39.92;101938.72;3614469;39;20055;-66
2023/05/20 08:42:53;;;;;;;5.20;3.08;;;;;;;21.60;40.10;101944.81;3614238;39;20062;-66
2023/05/20 08:45:25;;;;;;;2.78;2.58;;;;;;;21.72;38.93;101943.72;3615435;39;20043;-66
2023/05/20 08:47:51;;;;;;;5.18;3.22;;;;;;;21.51;39.95;101939.19;3614689;39;20055;-66
2023/05/20 08:50:17;;;;;;;5.72;3.30;;;;;;;21.54;40.12;101924.38;3614469;39;20058;-66
2023/05/20 08:52:45;;;;;;;10.63;3.38;;;;;;;21.44;40.14;101940.75;3615162;39;20054;-66
2023/05/20 08:55:25;;;;;;;4.05;2.88;;;;;;;21.53;40.11;101934.47;3610393;39;20063;-65
2023/05/20 08:57:53;;;;;;;3.58;3.10;;;;;;;21.65;39.08;101931.59;3611055;39;20047;-66
2023/05/20 09:00:27;;;;;;;3.58;2.85;;;;;;;21.74;38.56;101936.22;3613849;39;20347;-65
2023/05/20 09:02:54;;;;;;;5.28;2.67;;;;;;;21.83;40.17;101943.59;3613710;39;20066;-65
2023/05/20 09:05:21;;;;;;;5.75;3.25;;;;;;;21.85;39.14;101924.28;3613493;39;20051;-65
2023/05/20 09:07:48;;;;;;;3.30;3.00;;;;;;;21.86;39.33;101885.81;3614456;39;20274;-65
2023/05/20 09:10:14;;;;;;;7.55;3.33;;;;;;;22.16;38.06;101925.06;3613962;39;20057;-65
2023/05/20 09:12:39;;;;;;;5.03;2.72;;;;;;;21.82;38.01;101914.50;3614306;39;20050;-66
2023/05/20 09:15:06;;;;;;;5.07;3.05;;;;;;;21.59;38.52;101919.34;3613968;39;20061;-66
2023/05/20 09:17:36;;;;;;;5.00;2.97;;;;;;;21.58;40.13;101925.81;3613905;39;20065;-66
2023/05/20 09:20:08;;;;;;;4.05;2.70;;;;;;;21.68;38.04;101915.75;3615778;39;20086;-66
2023/05/20 09:22:34;;;;;;;4.15;2.60;;;;;;;21.62;39.42;101926.41;3614399;39;20431;-66
2023/05/20 09:25:00;;;;;;;3.78;2.45;;;;;;;21.55;38.62;101894.13;3614726;39;20370;-66
2023/05/20 09:27:25;;;;;;;3.15;2.22;;;;;;;22.19;39.56;101919.31;3616774;39;20290;-66
2023/05/20 09:29:51;;;;;;;2.53;2.10;;;;;;;22.36;37.90;101910.38;3614792;39;20047;-66
2023/05/20 09:32:22;;;;;;;5.85;2.65;;;;;;;22.68;37.31;101931.09;3614736;39;20502;-66
2023/05/20 09:34:48;;;;;;;4.47;2.28;;;;;;;22.70;37.41;101920.84;3616062;39;20051;-66
2023/05/20 09:37:20;;;;;;;3.47;2.50;;;;;;;22.82;36.99;101916.06;3616351;39;20051;-65
2023/05/20 09:40:02;;;;;;;4.25;2.50;;;;;;;23.02;37.51;101914.16;3616806;39;20293;-66
2023/05/20 09:42:42;;;;;;;4.82;2.30;;;;;;;23.16;37.26;101920.03;3615656;39;20051;-67
2023/05/20 09:45:09;;;;;;;3.58;2.35;;;;;;;23.05;37.04;101875.44;3615857;39;20289;-66
2023/05/20 09:47:41;;;;;;;3.95;2.50;;;;;;;23.20;36.09;101926.06;3616338;39;20059;-65
2023/05/20 09:50:08;;;;;;;4.93;3.10;;;;;;;23.30;36.08;101921.41;3615711;39;20050;-66
2023/05/20 09:52:38;;;;;;;3.20;2.83;;;;;;;23.32;35.68;101919.38;3614541;39;20302;-66
2023/05/20 09:55:11;;;;;;;3.03;2.65;;;;;;;23.24;37.15;101902.78;3614750;39;20130;-66
2023/05/20 09:57:37;;;;;;;4.43;2.60;;;;;;;23.59;37.19;101914.88;3614835;39;20039;-65
2023/05/20 10:00:07;;;;;;;5.60;2.67;;;;;;;23.77;37.34;101915.81;3614348;39;20085;-66
2023/05/20 10:02:34;;;;;;;3.05;2.78;;;;;;;23.82;36.07;101910.75;3615167;39;20067;-65
2023/05/20 10:05:29;;;;;;;3.25;2.55;;;;;;;23.75;35.90;101871.16;3615144;39;20148;-66
2023/05/20 10:08:27;;;;;;;4.57;2.55;;;;;;;24.27;36.91;101904.31;3617694;39;20063;-66
2023/05/20 10:11:27;;;;;;;6.00;2.50;;;;;;;24.70;36.05;101904.50;3614882;39;20058;-65
2023/05/20 10:14:11;;;;;;;2.67;2.47;;;;;;;24.77;34.86;101898.19;3614867;39;20199;-66
2023/05/20 10:16:53;;;;;;;2.95;2.45;;;;;;;24.48;34.29;101894.88;3614066;39;20047;-65
2023/05/20 10:19:31;;;;;;;3.13;2.55;;;;;;;24.32;35.10;101890.06;3616375;39;20086;-65
2023/05/20 10:22:03;;;;;;;4.95;2.53;;;;;;;24.07;34.51;101898.13;3614346;39;20062;-66
2023/05/20 10:24:34;;;;;;;3.95;2.40;;;;;;;23.89;34.89;101889.00;3614272;39;20059;-67
2023/05/20 10:27:08;;;;;;;2.95;2.20;;;;;;;23.49;35.10;101883.91;3617181;39;20090;-66
2023/05/20 10:29:52;;;;;;;3.65;2.70;;;;;;;23.28;35.15;101885.03;3609422;39;20064;-66
2023/05/20 10:32:25;;;;;;;2.70;2.30;;;;;;;23.23;35.85;101870.03;3614061;39;20091;-67
2023/05/20 10:34:50;;;;;;;;;;;;;;;23.38;36.83;101868.50;3614802;39;20136;-66
2023/05/20 10:37:41;;;;;;;3.35;2.50;;;;;;;23.85;37.36;101862.88;3613564;39;19935;-66
2023/05/20 10:40:17;;;;;;;5.28;2.35;;;;;;;24.20;35.21;101864.75;3614096;39;20062;-67
2023/05/20 10:42:43;;;;;;;5.03;2.55;;;;;;;24.49;35.68;101859.00;3615270;39;20304;-66
2023/05/20 10:45:10;;;;;;;6.97;2.53;;;;;;;24.85;33.37;101856.13;3614559;39;20049;-65
2023/05/20 10:47:41;;;;;;;5.00;2.60;;;;;;;24.81;33.41;101856.63;3615959;39;20053;-66
2023/05/20 10:50:12;;;;;;;5.03;2.10;;;;;;;24.64;33.32;101867.50;3614809;39;20046;-66
2023/05/20 10:52:40;;;;;;;4.97;2.25;;;;;;;24.62;34.52;101861.31;3613962;39;20128;-66
2023/05/20 10:55:07;;;;;;;4.10;2.70;;;;;;;24.77;35.42;101845.09;3613786;39;20090;-66
2023/05/20 10:57:33;;;;;;;2.90;2.35;;;;;;;25.13;33.97;101861.47;3614157;39;20306;-66
2023/05/20 11:00:00;;;;;;;2.58;2.10;;;;;;;25.19;33.19;101845.16;3614981;39;20374;-66
2023/05/20 11:02:27;;;;;;;3.08;2.75;;;;;;;25.29;33.13;101846.91;3613625;39;20042;-66
2023/05/20 11:04:57;;;;;;;2.55;2.20;;;;;;;24.98;33.59;101841.91;3614497;39;20059;-66
2023/05/20 11:07:30;;;;;;;2.45;2.13;;;;;;;24.83;34.48;101849.91;3614063;39;20147;-66
2023/05/20 11:09:57;;;;;;;2.63;2.38;;;;;;;24.90;34.09;101833.63;3613609;39;20067;-66
2023/05/20 11:12:25;;;;;;;2.70;2.50;;;;;;;25.04;33.61;101837.66;3607166;39;20499;-67
2023/05/20 11:14:51;;;;;;;2.97;2.47;;;;;;;24.70;33.68;101819.25;3615456;39;20296;-66
2023/05/20 11:17:18;;;;;;;4.38;2.60;;;;;;;24.59;33.61;101814.91;3606126;39;20047;-67
2023/05/20 11:19:46;;;;;;;3.75;2.28;;;;;;;24.64;34.49;101834.50;3614913;39;20062;-65
2023/05/20 11:22:11;;;;;;;4.85;2.30;;;;;;;24.86;34.47;101833.09;3614759;39;20058;-66
2023/05/20 11:24:37;;;;;;;2.78;2.17;;;;;;;24.70;33.65;101833.84;3614506;39;20054;-66
2023/05/20 11:27:03;;;;;;;4.50;2.53;;;;;;;24.89;34.63;101831.91;3616503;39;20278;-66